createdAt,value
2023-05-05T00:00:25.135Z,17.2827
2023-05-05T00:01:33.511Z,17.2755
2023-05-05T00:02:41.534Z,17.2761
2023-05-05T00:03:49.629Z,17.2597
2023-05-05T00:04:57.613Z,17.2421
2023-05-05T00:06:05.649Z,17.2045
2023-05-05T00:07:13.661Z,17.1553
2023-05-05T00:08:21.754Z,17.1334
2023-05-05T00:09:29.757Z,17.1031
2023-05-05T00:10:37.860Z,17.0756
2023-05-05T00:11:45.892Z,17.0590
2023-05-05T00:12:53.851Z,17.0411
2023-05-05T00:14:01.885Z,17.0338
2023-05-05T00:15:09.916Z,17.0491
2023-05-05T00:16:18.103Z,17.0535
2023-05-05T00:17:26.299Z,17.0632
2023-05-05T00:18:34.252Z,17.0737
2023-05-05T00:19:42.343Z,17.0830
2023-05-05T00:20:50.368Z,17.1075
2023-05-05T00:21:58.400Z,17.1109
2023-05-05T00:23:06.472Z,17.1096
2023-05-05T00:24:14.711Z,17.0981
2023-05-05T00:25:22.644Z,17.0726
2023-05-05T00:26:30.606Z,17.0485
2023-05-05T00:27:40.236Z,17.0184
2023-05-05T00:28:51.488Z,16.9621
2023-05-05T00:29:59.832Z,16.9194
2023-05-05T00:31:07.865Z,16.8843
2023-05-05T00:32:15.824Z,16.8717
2023-05-05T00:33:23.919Z,16.8585
2023-05-05T00:34:31.955Z,16.8467
2023-05-05T00:35:39.976Z,16.8339
2023-05-05T00:36:48.061Z,16.8318
2023-05-05T00:37:56.157Z,16.8196
2023-05-05T00:39:04.234Z,16.8021
2023-05-05T00:40:12.246Z,16.7903
2023-05-05T00:41:20.171Z,16.7803
2023-05-05T00:42:28.217Z,16.7657
2023-05-05T00:43:36.273Z,16.7416
2023-05-05T00:44:44.715Z,16.6918
2023-05-05T00:45:52.520Z,16.6464
2023-05-05T00:47:00.770Z,16.6291
2023-05-05T00:48:08.796Z,16.6218
2023-05-05T00:49:16.851Z,16.6224
2023-05-05T00:50:24.773Z,16.6245
2023-05-05T00:51:32.852Z,16.6112
2023-05-05T00:52:40.996Z,16.5902
2023-05-05T00:53:48.990Z,16.5745
2023-05-05T00:54:57.053Z,16.5774
2023-05-05T00:56:04.960Z,16.5723
2023-05-05T00:57:13.029Z,16.5898
2023-05-05T00:58:21.100Z,16.6400
2023-05-05T00:59:29.305Z,16.6667
2023-05-05T01:00:37.334Z,16.7180
2023-05-05T01:01:45.399Z,16.7657
2023-05-05T01:02:53.588Z,16.7916
2023-05-05T01:04:01.742Z,16.8013
2023-05-05T01:05:09.585Z,16.8030
2023-05-05T01:06:17.677Z,16.7968
2023-05-05T01:07:25.695Z,16.7882
2023-05-05T01:08:33.779Z,16.7988
2023-05-05T01:09:41.869Z,16.7935
2023-05-05T01:10:49.756Z,16.7926
2023-05-05T01:11:57.813Z,16.7952
2023-05-05T01:13:05.961Z,16.8036
2023-05-05T01:14:14.087Z,16.7966
2023-05-05T01:15:22.139Z,16.8086
2023-05-05T01:16:30.199Z,16.8137
2023-05-05T01:17:38.309Z,16.8214
2023-05-05T01:18:46.319Z,16.8339
2023-05-05T01:19:54.611Z,16.8355
2023-05-05T01:21:02.508Z,16.8463
2023-05-05T01:22:10.631Z,16.8610
2023-05-05T01:23:18.628Z,16.8692
2023-05-05T01:24:26.771Z,16.8826
2023-05-05T01:25:34.618Z,16.8826
2023-05-05T01:26:42.680Z,16.8793
2023-05-05T01:27:50.721Z,16.8786
2023-05-05T01:28:58.945Z,16.8811
2023-05-05T01:30:07.304Z,16.8809
2023-05-05T01:31:15.080Z,16.8706
2023-05-05T01:32:23.114Z,16.8627
2023-05-05T01:33:31.151Z,16.8551
2023-05-05T01:34:39.207Z,16.8420
2023-05-05T01:35:47.474Z,16.8418
2023-05-05T01:36:55.337Z,16.8299
2023-05-05T01:38:03.402Z,16.8288
2023-05-05T01:39:11.466Z,16.8313
2023-05-05T01:40:19.447Z,16.8212
2023-05-05T01:41:27.416Z,16.8132
2023-05-05T01:42:35.538Z,16.8061
2023-05-05T01:43:43.754Z,16.7832
2023-05-05T01:44:51.792Z,16.7737
2023-05-05T01:45:59.873Z,16.7395
2023-05-05T01:47:07.923Z,16.7161
2023-05-05T01:48:15.939Z,16.6930
2023-05-05T01:49:23.990Z,16.6732
2023-05-05T01:50:32.086Z,16.6289
2023-05-05T01:51:40.117Z,16.5944
2023-05-05T01:52:48.290Z,16.5614
2023-05-05T01:53:56.323Z,16.5291
2023-05-05T01:55:04.168Z,16.5108
2023-05-05T01:56:12.206Z,16.4790
2023-05-05T01:57:20.276Z,16.4498
2023-05-05T01:58:28.472Z,16.4216
2023-05-05T01:59:36.504Z,16.3865
2023-05-05T02:00:44.794Z,16.3594
2023-05-05T02:01:52.644Z,16.3437
2023-05-05T02:03:00.725Z,16.3319
2023-05-05T02:04:08.737Z,16.3153
2023-05-05T02:05:16.948Z,16.3136
2023-05-05T02:06:24.887Z,16.2985
2023-05-05T02:07:32.928Z,16.2873
2023-05-05T02:08:41.232Z,16.2810
2023-05-05T02:09:48.970Z,16.2692
2023-05-05T02:10:57.018Z,16.2625
2023-05-05T02:12:05.103Z,16.2442
2023-05-05T02:13:13.384Z,16.2531
2023-05-05T02:14:21.304Z,16.2388
2023-05-05T02:15:29.426Z,16.2411
2023-05-05T02:16:37.637Z,16.2257
2023-05-05T02:17:45.551Z,16.2209
2023-05-05T02:18:53.562Z,16.2289
2023-05-05T02:20:01.714Z,16.2196
2023-05-05T02:21:09.695Z,16.2156
2023-05-05T02:22:17.720Z,16.2272
2023-05-05T02:23:25.892Z,16.2320
2023-05-05T02:24:33.728Z,16.2390
2023-05-05T02:25:41.806Z,16.2533
2023-05-05T02:26:49.846Z,16.2644
2023-05-05T02:27:58.055Z,16.2900
2023-05-05T02:29:06.070Z,16.3159
2023-05-05T02:30:14.207Z,16.3243
2023-05-05T02:31:22.209Z,16.3390
2023-05-05T02:32:30.464Z,16.3582
2023-05-05T02:33:38.320Z,16.3867
2023-05-05T02:34:46.374Z,16.4034
2023-05-05T02:35:54.480Z,16.4208
2023-05-05T02:37:02.484Z,16.4467
2023-05-05T02:38:10.639Z,16.4488
2023-05-05T02:39:18.484Z,16.4548
2023-05-05T02:40:26.563Z,16.4567
2023-05-05T02:41:34.642Z,16.4445
2023-05-05T02:42:42.709Z,16.4353
2023-05-05T02:43:50.752Z,16.4326
2023-05-05T02:44:58.958Z,16.4487
2023-05-05T02:46:07.058Z,16.4492
2023-05-05T02:47:15.040Z,16.4645
2023-05-05T02:48:23.138Z,16.4748
2023-05-05T02:49:31.294Z,16.4714
2023-05-05T02:50:39.299Z,16.4786
2023-05-05T02:51:47.315Z,16.4803
2023-05-05T02:52:55.364Z,16.4900
2023-05-05T02:54:03.366Z,16.4958
2023-05-05T02:55:11.594Z,16.4965
2023-05-05T02:56:19.452Z,16.5038
2023-05-05T02:57:27.444Z,16.4965
2023-05-05T02:58:35.547Z,16.4847
2023-05-05T02:59:43.756Z,16.4803
2023-05-05T03:00:51.827Z,16.4872
2023-05-05T03:01:59.909Z,16.4872
2023-05-05T03:03:07.918Z,16.4946
2023-05-05T03:04:15.950Z,16.4921
2023-05-05T03:05:23.995Z,16.4988
2023-05-05T03:06:32.121Z,16.5030
2023-05-05T03:07:40.148Z,16.5145
2023-05-05T03:08:48.188Z,16.5278
2023-05-05T03:09:56.272Z,16.5265
2023-05-05T03:11:04.258Z,16.5330
2023-05-05T03:12:12.261Z,16.5339
2023-05-05T03:13:20.356Z,16.5476
2023-05-05T03:14:29.583Z,16.5484
2023-05-05T03:15:41.510Z,16.5582
2023-05-05T03:16:49.560Z,16.5473
2023-05-05T03:17:57.670Z,16.5515
2023-05-05T03:19:05.662Z,16.5475
2023-05-05T03:20:13.703Z,16.5457
2023-05-05T03:21:21.921Z,16.5534
2023-05-05T03:22:29.848Z,16.5404
2023-05-05T03:23:37.843Z,16.5360
2023-05-05T03:24:45.776Z,16.5358
2023-05-05T03:25:53.873Z,16.5314
2023-05-05T03:27:01.964Z,16.5368
2023-05-05T03:28:10.112Z,16.5164
2023-05-05T03:29:18.198Z,16.5087
2023-05-05T03:30:26.285Z,16.4986
2023-05-05T03:31:34.362Z,16.5127
2023-05-05T03:32:42.358Z,16.5290
2023-05-05T03:33:50.438Z,16.5332
2023-05-05T03:34:58.636Z,16.5272
2023-05-05T03:36:06.544Z,16.5373
2023-05-05T03:37:14.800Z,16.5608
2023-05-05T03:38:22.627Z,16.5698
2023-05-05T03:39:30.576Z,16.5591
2023-05-05T03:40:44.127Z,16.5539
2023-05-05T03:41:51.764Z,16.5714
2023-05-05T03:42:59.793Z,16.5782
2023-05-05T03:44:07.855Z,16.5867
2023-05-05T03:45:16.049Z,16.5873
2023-05-05T03:46:23.969Z,16.5993
2023-05-05T03:47:32.005Z,16.6058
2023-05-05T03:48:40.042Z,16.6005
2023-05-05T03:49:48.126Z,16.6014
2023-05-05T03:50:56.154Z,16.5923
2023-05-05T03:52:04.248Z,16.5829
2023-05-05T03:53:12.165Z,16.5681
2023-05-05T03:54:20.206Z,16.5373
2023-05-05T03:55:28.270Z,16.5148
2023-05-05T03:56:36.513Z,16.4668
2023-05-05T03:57:44.526Z,16.4279
2023-05-05T03:58:52.579Z,16.3823
2023-05-05T04:00:00.648Z,16.3405
2023-05-05T04:01:08.697Z,16.3102
2023-05-05T04:02:18.630Z,16.2665
2023-05-05T04:03:29.707Z,16.1982
2023-05-05T04:04:37.697Z,16.1206
2023-05-05T04:05:45.761Z,16.0685
2023-05-05T04:06:53.788Z,16.0060
2023-05-05T04:08:01.794Z,15.9314
2023-05-05T04:09:09.818Z,15.8732
2023-05-05T04:10:18.040Z,15.8166
2023-05-05T04:11:26.141Z,15.7666
2023-05-05T04:12:34.225Z,15.6962
2023-05-05T04:13:42.452Z,15.6298
2023-05-05T04:14:50.314Z,15.5720
2023-05-05T04:15:58.467Z,15.5373
2023-05-05T04:17:06.374Z,15.5074
2023-05-05T04:18:14.465Z,15.4543
2023-05-05T04:19:22.539Z,15.4026
2023-05-05T04:20:30.528Z,15.3738
2023-05-05T04:21:38.564Z,15.3489
2023-05-05T04:22:46.602Z,15.3288
2023-05-05T04:23:54.620Z,15.3143
2023-05-05T04:25:02.768Z,15.3096
2023-05-05T04:26:10.856Z,15.2913
2023-05-05T04:27:18.931Z,15.2844
2023-05-05T04:28:27.064Z,15.2613
2023-05-05T04:29:35.104Z,15.2352
2023-05-05T04:30:43.131Z,15.2554
2023-05-05T04:31:51.249Z,15.2575
2023-05-05T04:32:59.321Z,15.2291
2023-05-05T04:34:07.385Z,15.2214
2023-05-05T04:35:15.341Z,15.2514
2023-05-05T04:36:23.288Z,15.3033
2023-05-05T04:37:31.386Z,15.3454
2023-05-05T04:38:39.407Z,15.3817
2023-05-05T04:39:47.528Z,15.4406
2023-05-05T04:40:55.621Z,15.5049
2023-05-05T04:42:03.683Z,15.5629
2023-05-05T04:43:11.811Z,15.5886
2023-05-05T04:44:19.794Z,15.6224
2023-05-05T04:45:27.825Z,15.6306
2023-05-05T04:46:35.918Z,15.6437
2023-05-05T04:47:44.131Z,15.6245
2023-05-05T04:48:52.123Z,15.6157
2023-05-05T04:50:00.125Z,15.5930
2023-05-05T04:51:08.077Z,15.5722
2023-05-05T04:52:16.140Z,15.5592
2023-05-05T04:53:24.212Z,15.5409
2023-05-05T04:54:32.337Z,15.5367
2023-05-05T04:55:40.357Z,15.5308
2023-05-05T04:56:48.403Z,15.5285
2023-05-05T04:57:56.558Z,15.5243
2023-05-05T04:59:04.548Z,15.5274
2023-05-05T05:00:12.576Z,15.5219
2023-05-05T05:01:20.664Z,15.5236
2023-05-05T05:02:28.774Z,15.5285
2023-05-05T05:03:36.864Z,15.5404
2023-05-05T05:04:44.865Z,15.5535
2023-05-05T05:05:52.967Z,15.5560
2023-05-05T05:07:00.855Z,15.5795
2023-05-05T05:08:08.974Z,15.5900
2023-05-05T05:09:17.157Z,15.6237
2023-05-05T05:10:25.186Z,15.6380
2023-05-05T05:11:33.237Z,15.6279
2023-05-05T05:12:41.288Z,15.6342
2023-05-05T05:13:49.386Z,15.6329
2023-05-05T05:14:57.512Z,15.6287
2023-05-05T05:16:05.582Z,15.6397
2023-05-05T05:17:13.456Z,15.6512
2023-05-05T05:18:21.596Z,15.6813
2023-05-05T05:19:29.693Z,15.7000
2023-05-05T05:20:37.546Z,15.7321
2023-05-05T05:21:45.628Z,15.7696
2023-05-05T05:22:53.711Z,15.7963
2023-05-05T05:24:01.789Z,15.8188
2023-05-05T05:25:09.913Z,15.8486
2023-05-05T05:26:17.974Z,15.8759
2023-05-05T05:27:26.010Z,15.9220
2023-05-05T05:28:34.209Z,15.9710
2023-05-05T05:29:42.187Z,16.0237
2023-05-05T05:30:50.249Z,16.0731
2023-05-05T05:31:58.392Z,16.1086
2023-05-05T05:33:06.437Z,16.1412
2023-05-05T05:34:14.463Z,16.1862
2023-05-05T05:35:22.405Z,16.2360
2023-05-05T05:36:30.472Z,16.2625
2023-05-05T05:37:38.573Z,16.2926
2023-05-05T05:38:46.605Z,16.3212
2023-05-05T05:39:54.710Z,16.3439
2023-05-05T05:41:02.854Z,16.3609
2023-05-05T05:42:10.841Z,16.3905
2023-05-05T05:43:18.983Z,16.4094
2023-05-05T05:44:27.001Z,16.4372
2023-05-05T05:45:35.228Z,16.4712
2023-05-05T05:46:43.151Z,16.5022
2023-05-05T05:47:51.363Z,16.5337
2023-05-05T05:48:59.327Z,16.5665
2023-05-05T05:50:07.438Z,16.5879
2023-05-05T05:51:15.222Z,16.6291
2023-05-05T05:52:23.265Z,16.6646
2023-05-05T05:53:31.517Z,16.7075
2023-05-05T05:54:39.380Z,16.7395
2023-05-05T05:55:47.719Z,16.7874
2023-05-05T05:56:55.580Z,16.8107
2023-05-05T05:58:03.720Z,16.8318
2023-05-05T05:59:11.786Z,16.8507
2023-05-05T06:00:19.763Z,16.8776
2023-05-05T06:01:27.840Z,16.9070
2023-05-05T06:02:35.934Z,16.9303
2023-05-05T06:03:44.046Z,16.9623
2023-05-05T06:04:51.927Z,16.9987
2023-05-05T06:05:59.976Z,17.0356
2023-05-05T06:07:08.006Z,17.0691
2023-05-05T06:08:16.171Z,17.0975
2023-05-05T06:09:24.330Z,17.1172
2023-05-05T06:10:32.524Z,17.1483
2023-05-05T06:11:45.258Z,17.1875
2023-05-05T06:12:53.652Z,17.2175
2023-05-05T06:14:01.414Z,17.2555
2023-05-05T06:15:09.397Z,17.2808
2023-05-05T06:16:17.538Z,17.3114
2023-05-05T06:17:25.497Z,17.3268
2023-05-05T06:18:33.547Z,17.3531
2023-05-05T06:19:41.535Z,17.3823
2023-05-05T06:20:49.609Z,17.4144
2023-05-05T06:21:57.908Z,17.4611
2023-05-05T06:23:05.872Z,17.5071
2023-05-05T06:24:13.912Z,17.5355
2023-05-05T06:25:21.981Z,17.5629
2023-05-05T06:26:30.003Z,17.5952
2023-05-05T06:27:38.022Z,17.6238
2023-05-05T06:28:46.112Z,17.6648
2023-05-05T06:29:54.250Z,17.7096
2023-05-05T06:31:02.303Z,17.7476
2023-05-05T06:32:10.286Z,17.7714
2023-05-05T06:33:18.244Z,17.8000
2023-05-05T06:34:26.295Z,17.8161
2023-05-05T06:35:34.388Z,17.8347
2023-05-05T06:36:42.466Z,17.8452
2023-05-05T06:37:50.607Z,17.8719
2023-05-05T06:38:58.618Z,17.8986
2023-05-05T06:40:06.861Z,17.9229
2023-05-05T06:41:14.826Z,17.9635
2023-05-05T06:42:22.827Z,17.9984
2023-05-05T06:43:30.938Z,18.0507
2023-05-05T06:44:38.906Z,18.0827
2023-05-05T06:45:47.212Z,18.1275
2023-05-05T06:46:55.088Z,18.1807
2023-05-05T06:48:03.059Z,18.2309
2023-05-05T06:49:11.050Z,18.3009
2023-05-05T06:50:19.103Z,18.3350
2023-05-05T06:51:27.364Z,18.3667
2023-05-05T06:52:35.412Z,18.4262
2023-05-05T06:53:43.405Z,18.4957
2023-05-05T06:54:51.507Z,18.5712
2023-05-05T06:55:59.518Z,18.6439
2023-05-05T06:57:07.565Z,18.7438
2023-05-05T06:58:15.614Z,18.8138
2023-05-05T06:59:23.681Z,18.8441
2023-05-05T07:00:31.736Z,18.8790
2023-05-05T07:01:39.880Z,18.9204
2023-05-05T07:02:47.771Z,18.9452
2023-05-05T07:03:55.877Z,18.9820
2023-05-05T07:05:03.896Z,19.0068
2023-05-05T07:06:12.009Z,19.0154
2023-05-05T07:07:20.147Z,19.0164
2023-05-05T07:08:28.190Z,19.0309
2023-05-05T07:09:36.304Z,19.0425
2023-05-05T07:10:44.296Z,19.0621
2023-05-05T07:11:52.397Z,19.0618
2023-05-05T07:13:00.444Z,19.0684
2023-05-05T07:14:08.438Z,19.0738
2023-05-05T07:15:27.614Z,19.0866
2023-05-05T07:16:29.372Z,19.0793
2023-05-05T07:17:37.383Z,19.0721
2023-05-05T07:18:45.432Z,19.0585
2023-05-05T07:19:53.753Z,19.0530
2023-05-05T07:21:01.630Z,19.0463
2023-05-05T07:22:09.637Z,19.0320
2023-05-05T07:23:17.849Z,19.0198
2023-05-05T07:24:25.803Z,19.0053
2023-05-05T07:25:33.948Z,19.0013
2023-05-05T07:26:42.004Z,18.9960
2023-05-05T07:27:50.063Z,19.0108
2023-05-05T07:28:58.082Z,19.0095
2023-05-05T07:30:10.057Z,19.0051
2023-05-05T07:31:18.927Z,19.0170
2023-05-05T07:32:27.096Z,19.0091
2023-05-05T07:33:35.074Z,19.0087
2023-05-05T07:34:43.271Z,19.0251
2023-05-05T07:35:51.399Z,19.0127
2023-05-05T07:36:59.410Z,19.0187
2023-05-05T07:38:08.719Z,19.0372
2023-05-05T07:39:20.332Z,19.0416
2023-05-05T07:40:28.371Z,19.0398
2023-05-05T07:41:36.462Z,19.0593
2023-05-05T07:42:44.626Z,19.0604
2023-05-05T07:43:52.677Z,19.0759
2023-05-05T07:45:00.470Z,19.0747
2023-05-05T07:46:08.548Z,19.0980
2023-05-05T07:47:16.629Z,19.1173
2023-05-05T07:48:24.769Z,19.1432
2023-05-05T07:49:32.874Z,19.1625
2023-05-05T07:50:40.905Z,19.1760
2023-05-05T07:51:49.127Z,19.2006
2023-05-05T07:53:06.250Z,19.2130
2023-05-05T07:54:09.916Z,19.2195
2023-05-05T07:55:18.018Z,19.2168
2023-05-05T07:56:26.068Z,19.2401
2023-05-05T07:57:34.239Z,19.2447
2023-05-05T07:58:42.035Z,19.2487
2023-05-05T07:59:50.067Z,19.2754
2023-05-05T08:00:58.141Z,19.2939
2023-05-05T08:02:06.345Z,19.3151
2023-05-05T08:03:14.441Z,19.3305
2023-05-05T08:04:22.428Z,19.3446
2023-05-05T08:05:30.502Z,19.3652
2023-05-05T08:06:38.506Z,19.4005
2023-05-05T08:07:46.800Z,19.4345
2023-05-05T08:08:54.665Z,19.4787
2023-05-05T08:10:02.718Z,19.5245
2023-05-05T08:11:10.834Z,19.5750
2023-05-05T08:12:18.868Z,19.6624
2023-05-05T08:13:26.809Z,19.7969
2023-05-05T08:14:34.840Z,20.0471
2023-05-05T08:15:42.910Z,20.3660
2023-05-05T08:16:51.064Z,20.7397
2023-05-05T08:17:59.190Z,21.0641
2023-05-05T08:19:17.670Z,21.2957
2023-05-05T08:20:20.182Z,21.4356
2023-05-05T08:21:28.164Z,21.6142
2023-05-05T08:22:36.282Z,21.8383
2023-05-05T08:23:44.300Z,22.1464
2023-05-05T08:24:52.634Z,22.4630
2023-05-05T08:26:00.285Z,22.8365
2023-05-05T08:27:08.339Z,23.1989
2023-05-05T08:28:16.440Z,23.4228
2023-05-05T08:29:24.641Z,23.5555
2023-05-05T08:30:32.927Z,23.6522
2023-05-05T08:31:40.751Z,23.7776
2023-05-05T08:32:48.910Z,23.8159
2023-05-05T08:33:56.958Z,23.7663
2023-05-05T08:35:04.927Z,23.6378
2023-05-05T08:36:12.932Z,23.5065
2023-05-05T08:37:21.071Z,23.3890
2023-05-05T08:38:29.066Z,23.2986
2023-05-05T08:39:37.168Z,23.1664
2023-05-05T08:40:45.049Z,23.0550
2023-05-05T08:41:53.152Z,22.9652
2023-05-05T08:43:01.203Z,22.8986
2023-05-05T08:44:09.479Z,22.8647
2023-05-05T08:45:17.543Z,22.8553
2023-05-05T08:46:25.482Z,22.8470
2023-05-05T08:47:33.555Z,22.8403
2023-05-05T08:48:41.741Z,22.8456
2023-05-05T08:49:49.715Z,22.8670
2023-05-05T08:50:59.542Z,22.8805
2023-05-05T08:52:10.647Z,22.9239
2023-05-05T08:53:18.668Z,22.9480
2023-05-05T08:54:26.637Z,22.9721
2023-05-05T08:55:34.690Z,23.0182
2023-05-05T08:56:42.751Z,23.0253
2023-05-05T08:57:51.110Z,23.0453
2023-05-05T08:58:58.965Z,23.0446
2023-05-05T09:00:07.008Z,23.0650
2023-05-05T09:01:15.159Z,23.0791
2023-05-05T09:02:23.209Z,23.1071
2023-05-05T09:03:31.190Z,23.1271
2023-05-05T09:04:39.282Z,23.1458
2023-05-05T09:05:47.277Z,23.1512
2023-05-05T09:06:55.308Z,23.1594
2023-05-05T09:08:03.584Z,23.1664
2023-05-05T09:09:11.406Z,23.1661
2023-05-05T09:10:19.452Z,23.2042
2023-05-05T09:11:27.531Z,23.2471
2023-05-05T09:12:35.664Z,23.2807
2023-05-05T09:13:43.892Z,23.3068
2023-05-05T09:14:51.770Z,23.3207
2023-05-05T09:15:59.894Z,23.3309
2023-05-05T09:17:07.981Z,23.3377
2023-05-05T09:18:15.956Z,23.3484
2023-05-05T09:19:23.974Z,23.3621
2023-05-05T09:20:32.234Z,23.3761
2023-05-05T09:21:40.117Z,23.3740
2023-05-05T09:22:48.174Z,23.3776
2023-05-05T09:23:58.535Z,23.3709
2023-05-05T09:25:09.251Z,23.3757
2023-05-05T09:26:17.214Z,23.3846
2023-05-05T09:27:25.264Z,23.3999
2023-05-05T09:28:33.264Z,23.4239
2023-05-05T09:29:41.493Z,23.4861
2023-05-05T09:30:49.493Z,23.5298
2023-05-05T09:31:57.533Z,23.5864
2023-05-05T09:33:05.667Z,23.6389
2023-05-05T09:34:13.630Z,23.7066
2023-05-05T09:35:21.727Z,23.7728
2023-05-05T09:36:29.700Z,23.8233
2023-05-05T09:37:37.736Z,23.8745
2023-05-05T09:38:45.819Z,23.9418
2023-05-05T09:39:53.929Z,24.0166
2023-05-05T09:41:02.136Z,24.0658
2023-05-05T09:42:10.095Z,24.1114
2023-05-05T09:43:18.163Z,24.1793
2023-05-05T09:44:26.358Z,24.2611
2023-05-05T09:45:34.286Z,24.3219
2023-05-05T09:46:42.515Z,24.3696
2023-05-05T09:47:50.652Z,24.4240
2023-05-05T09:48:58.503Z,24.4797
2023-05-05T09:50:06.696Z,24.5182
2023-05-05T09:51:14.449Z,24.5695
2023-05-05T09:52:22.546Z,24.6448
2023-05-05T09:53:30.556Z,24.7421
2023-05-05T09:54:38.790Z,24.8209
2023-05-05T09:55:46.832Z,24.8886
2023-05-05T09:56:54.827Z,25.0025
2023-05-05T09:58:02.985Z,25.1190
2023-05-05T09:59:11.098Z,25.2399
2023-05-05T10:00:18.923Z,25.3788
2023-05-05T10:01:27.162Z,25.5543
2023-05-05T10:02:35.146Z,25.7673
2023-05-05T10:03:43.265Z,25.9894
2023-05-05T10:04:51.259Z,26.3258
2023-05-05T10:05:59.208Z,26.7521
2023-05-05T10:07:07.263Z,27.2307
2023-05-05T10:08:15.342Z,27.6991
2023-05-05T10:09:23.503Z,28.1750
2023-05-05T10:10:31.610Z,28.6561
2023-05-05T10:11:39.552Z,29.1241
2023-05-05T10:12:47.782Z,29.5247
2023-05-05T10:13:55.773Z,29.9016
2023-05-05T10:15:03.809Z,30.2535
2023-05-05T10:16:12.022Z,30.5215
2023-05-05T10:17:19.888Z,30.8034
2023-05-05T10:18:27.967Z,30.9262
2023-05-05T10:19:36.006Z,31.0576
2023-05-05T10:20:44.024Z,31.1521
2023-05-05T10:21:52.080Z,31.2861
2023-05-05T10:23:00.148Z,31.4786
2023-05-05T10:24:08.245Z,31.7977
2023-05-05T10:25:16.308Z,32.1906
2023-05-05T10:26:24.466Z,32.5072
2023-05-05T10:27:32.524Z,32.7626
2023-05-05T10:28:40.540Z,32.7575
2023-05-05T10:29:48.633Z,32.7481
2023-05-05T10:30:56.704Z,32.7831
2023-05-05T10:32:21.456Z,32.8470
2023-05-05T10:33:30.213Z,32.8816
2023-05-05T10:34:30.491Z,32.8971
2023-05-05T10:35:38.660Z,32.8430
2023-05-05T10:36:46.787Z,32.7686
2023-05-05T10:37:54.826Z,32.6902
2023-05-05T10:39:02.826Z,32.6310
2023-05-05T10:40:11.241Z,32.5595
2023-05-05T10:41:18.979Z,32.5174
2023-05-05T10:42:27.082Z,32.5176
2023-05-05T10:43:35.116Z,32.5700
2023-05-05T10:44:43.116Z,32.7459
2023-05-05T10:45:51.243Z,32.9932
2023-05-05T10:46:59.172Z,33.3478
2023-05-05T10:48:07.247Z,33.7325
2023-05-05T10:49:15.277Z,34.1154
2023-05-05T10:50:23.390Z,34.3715
2023-05-05T10:51:40.094Z,34.6292
2023-05-05T10:52:44.517Z,34.9366
2023-05-05T10:53:52.522Z,35.3014
2023-05-05T10:55:00.509Z,35.6784
2023-05-05T10:56:08.722Z,36.0718
2023-05-05T10:57:16.735Z,36.4132
2023-05-05T10:58:24.723Z,36.7407
2023-05-05T10:59:32.845Z,36.9883
2023-05-05T11:00:40.814Z,37.2539
2023-05-05T11:01:48.838Z,37.4226
2023-05-05T11:02:56.999Z,37.6360
2023-05-05T11:04:05.105Z,37.7798
2023-05-05T11:05:13.102Z,37.7996
2023-05-05T11:06:21.119Z,37.8210
2023-05-05T11:07:29.309Z,37.7651
2023-05-05T11:08:37.557Z,37.6356
2023-05-05T11:09:45.440Z,37.4285
2023-05-05T11:10:53.494Z,37.0954
2023-05-05T11:12:01.596Z,36.6354
2023-05-05T11:13:09.590Z,36.1723
2023-05-05T11:14:17.640Z,35.6970
2023-05-05T11:15:25.633Z,35.2481
2023-05-05T11:16:33.726Z,34.8072
2023-05-05T11:17:41.832Z,34.3996
2023-05-05T11:18:49.968Z,34.0148
2023-05-05T11:19:57.984Z,33.7102
2023-05-05T11:21:06.003Z,33.4255
2023-05-05T11:22:14.106Z,33.2048
2023-05-05T11:23:22.216Z,32.9479
2023-05-05T11:24:30.274Z,32.7808
2023-05-05T11:25:38.404Z,32.5914
2023-05-05T11:26:46.361Z,32.4353
2023-05-05T11:27:54.444Z,32.3180
2023-05-05T11:29:02.501Z,32.1998
2023-05-05T11:30:10.705Z,32.0825
2023-05-05T11:31:18.605Z,31.9604
2023-05-05T11:32:26.633Z,31.8519
2023-05-05T11:33:34.785Z,31.7578
2023-05-05T11:34:42.772Z,31.6066
2023-05-05T11:35:50.847Z,31.4868
2023-05-05T11:36:58.948Z,31.3607
2023-05-05T11:38:07.036Z,31.2512
2023-05-05T11:39:15.049Z,31.1147
2023-05-05T11:40:23.129Z,31.0197
2023-05-05T11:41:31.230Z,30.9831
2023-05-05T11:42:39.290Z,30.9905
2023-05-05T11:43:47.274Z,31.0468
2023-05-05T11:44:55.301Z,31.1263
2023-05-05T11:46:03.396Z,31.2076
2023-05-05T11:47:11.408Z,31.2705
2023-05-05T11:48:19.770Z,31.3346
2023-05-05T11:49:27.691Z,31.4263
2023-05-05T11:50:35.855Z,31.6117
2023-05-05T11:51:43.787Z,31.8967
2023-05-05T11:52:51.848Z,32.3529
2023-05-05T11:53:59.904Z,32.7600
2023-05-05T11:55:07.972Z,33.1264
2023-05-05T11:56:16.102Z,33.3995
2023-05-05T11:57:24.245Z,33.8026
2023-05-05T11:58:32.205Z,33.8722
2023-05-05T11:59:40.086Z,33.7655
2023-05-05T12:00:48.147Z,33.5197
2023-05-05T12:01:56.213Z,33.2298
2023-05-05T12:03:04.522Z,32.9229
2023-05-05T12:04:12.861Z,32.6556
2023-05-05T12:05:20.546Z,32.3901
2023-05-05T12:06:28.610Z,32.2381
2023-05-05T12:07:36.631Z,32.1355
2023-05-05T12:08:44.777Z,32.1307
2023-05-05T12:09:52.791Z,32.1826
2023-05-05T12:11:01.009Z,32.3659
2023-05-05T12:12:08.974Z,32.8662
2023-05-05T12:13:17.131Z,33.4119
2023-05-05T12:14:24.980Z,33.8369
2023-05-05T12:15:32.996Z,34.3084
2023-05-05T12:16:41.271Z,34.7608
2023-05-05T12:17:49.280Z,35.1202
2023-05-05T12:18:57.408Z,35.3655
2023-05-05T12:20:05.592Z,35.5762
2023-05-05T12:21:13.482Z,35.7578
2023-05-05T12:22:21.539Z,35.9319
2023-05-05T12:23:29.641Z,36.0483
2023-05-05T12:24:37.624Z,35.9953
2023-05-05T12:25:45.721Z,35.9560
2023-05-05T12:26:53.826Z,35.9102
2023-05-05T12:28:02.036Z,35.9636
2023-05-05T12:29:09.844Z,35.9989
2023-05-05T12:30:17.929Z,36.2997
2023-05-05T12:31:25.953Z,36.4958
2023-05-05T12:32:34.259Z,36.7561
2023-05-05T12:33:42.240Z,37.0787
2023-05-05T12:34:50.308Z,37.3762
2023-05-05T12:35:58.480Z,37.6564
2023-05-05T12:37:06.362Z,38.0081
2023-05-05T12:38:14.466Z,38.2649
2023-05-05T12:39:22.565Z,38.6912
2023-05-05T12:40:30.601Z,38.8136
2023-05-05T12:41:38.668Z,38.9927
2023-05-05T12:42:46.763Z,39.2536
2023-05-05T12:43:54.756Z,39.3721
2023-05-05T12:45:02.751Z,39.6351
2023-05-05T12:46:10.928Z,39.9336
2023-05-05T12:47:19.004Z,40.3103
2023-05-05T12:48:27.111Z,40.7162
2023-05-05T12:49:35.064Z,41.1027
2023-05-05T12:50:43.251Z,41.4818
2023-05-05T12:51:51.241Z,41.8057
2023-05-05T12:52:59.358Z,42.1361
2023-05-05T12:54:07.446Z,42.4496
2023-05-05T12:55:15.567Z,42.7686
2023-05-05T12:56:23.559Z,42.9974
2023-05-05T12:57:31.562Z,43.1569
2023-05-05T12:58:39.558Z,43.1243
2023-05-05T12:59:47.675Z,42.9595
2023-05-05T13:00:55.816Z,42.9387
2023-05-05T13:02:04.160Z,42.8933
2023-05-05T13:03:12.024Z,42.9633
2023-05-05T13:04:20.042Z,43.1691
2023-05-05T13:05:28.151Z,43.2822
2023-05-05T13:06:36.248Z,43.5634
2023-05-05T13:07:44.208Z,43.3124
2023-05-05T13:08:52.305Z,43.5357
2023-05-05T13:10:00.529Z,43.9317
2023-05-05T13:11:08.405Z,44.3482
2023-05-05T13:12:16.526Z,44.8087
2023-05-05T13:13:24.449Z,44.9214
2023-05-05T13:14:32.674Z,44.8901
2023-05-05T13:15:40.653Z,44.1865
2023-05-05T13:16:48.784Z,43.6706
2023-05-05T13:17:57.100Z,43.3640
2023-05-05T13:19:04.896Z,42.9679
2023-05-05T13:20:13.054Z,42.2292
2023-05-05T13:21:21.060Z,41.8586
2023-05-05T13:22:29.164Z,41.3861
2023-05-05T13:23:37.190Z,40.8000
2023-05-05T13:24:52.479Z,40.3906
2023-05-05T13:25:58.101Z,40.0598
2023-05-05T13:27:06.162Z,39.6901
2023-05-05T13:28:14.201Z,39.4060
2023-05-05T13:29:24.667Z,39.2626
2023-05-05T13:30:35.326Z,39.5615
2023-05-05T13:31:43.656Z,39.6263
2023-05-05T13:32:51.599Z,39.5897
2023-05-05T13:33:59.540Z,39.8549
2023-05-05T13:35:07.894Z,40.2607
2023-05-05T13:36:15.840Z,40.5322
2023-05-05T13:37:23.740Z,40.5060
2023-05-05T13:38:31.835Z,40.3874
2023-05-05T13:39:39.752Z,39.7604
2023-05-05T13:40:47.830Z,39.1016
2023-05-05T13:41:55.875Z,38.3692
2023-05-05T13:43:04.052Z,37.6276
2023-05-05T13:44:12.149Z,36.9774